Time;durP1;ratioP1;P1;durP2;ratioP2;P2;SDS_P1;SDS_P2;PMS_P1;PMS_P2;Temp;Humidity;BMP_temperature;BMP_pressure;BME280_temperature;BME280_humidity;BME280_pressure;Samples;Min_cycle;Max_cycle;Signal;HPM_P1;HPM_P2
2023/05/25 00:01:33;;;;;;;2.63;1.65;;;19.20;65.30;;;;;;4993501;28;20203;-67
2023/05/25 00:04:01;;;;;;;2.35;1.75;;;19.30;65.40;;;;;;5013067;28;20270;-67
2023/05/25 00:06:28;;;;;;;2.15;1.83;;;19.30;65.40;;;;;;5013067;28;20215;-67
2023/05/25 00:08:56;;;;;;;2.03;1.67;;;19.20;65.30;;;;;;4995938;28;20239;-68
2023/05/25 00:11:26;;;;;;;3.00;1.95;;;19.30;65.50;;;;;;5012980;28;20212;-67
2023/05/25 00:13:52;;;;;;;2.03;1.83;;;19.20;65.20;;;;;;4996872;28;20601;-67
2023/05/25 00:16:18;;;;;;;1.98;1.58;;;19.20;65.20;;;;;;4993358;28;20292;-67
2023/05/25 00:18:44;;;;;;;2.75;1.90;;;19.30;65.30;;;;;;4994358;28;20267;-67
2023/05/25 00:21:10;;;;;;;2.10;1.80;;;19.30;65.30;;;;;;5029524;28;20192;-68
2023/05/25 00:23:36;;;;;;;2.17;1.55;;;19.30;65.30;;;;;;5029241;28;20244;-67
2023/05/25 00:26:03;;;;;;;3.35;2.00;;;19.20;65.10;;;;;;4996159;28;20307;-67
2023/05/25 00:28:28;;;;;;;2.90;1.75;;;19.20;65.20;;;;;;4996155;28;20223;-67
2023/05/25 00:30:54;;;;;;;2.97;1.83;;;19.30;66.10;;;;;;4996397;28;20180;-67
2023/05/25 00:33:20;;;;;;;2.55;1.80;;;19.20;65.20;;;;;;4993427;28;20213;-67
2023/05/25 00:35:46;;;;;;;2.22;1.58;;;19.20;65.20;;;;;;5010526;28;20184;-67
2023/05/25 00:38:18;;;;;;;2.72;2.10;;;19.20;65.10;;;;;;4993051;28;20181;-67
2023/05/25 00:40:45;;;;;;;2.72;1.83;;;19.20;65.10;;;;;;4994230;28;20215;-67
2023/05/25 00:43:12;;;;;;;4.15;1.85;;;19.20;65.10;;;;;;4992965;28;20181;-67
2023/05/25 00:45:38;;;;;;;3.50;2.10;;;19.20;65.00;;;;;;5009156;28;20184;-67
2023/05/25 00:48:05;;;;;;;2.25;1.70;;;19.20;65.00;;;;;;4996114;28;20184;-67
2023/05/25 00:50:41;;;;;;;2.80;1.92;;;19.20;65.10;;;;;;4992729;28;20303;-67
2023/05/25 00:53:08;;;;;;;2.53;2.00;;;19.20;65.10;;;;;;5004372;28;20204;-67
2023/05/25 00:55:44;;;;;;;2.25;1.88;;;19.20;65.10;;;;;;4996326;28;20179;-67
2023/05/25 00:58:15;;;;;;;3.10;2.10;;;19.20;65.10;;;;;;4995736;28;20548;-67
2023/05/25 01:00:45;;;;;;;2.33;2.10;;;19.20;65.10;;;;;;5011961;28;20188;-68
2023/05/25 01:03:16;;;;;;;3.50;1.90;;;19.20;65.00;;;;;;4992573;28;20188;-68
2023/05/25 01:05:47;;;;;;;2.17;1.95;;;19.20;65.10;;;;;;4992746;28;20188;-67
2023/05/25 01:08:16;;;;;;;2.35;1.83;;;19.20;65.10;;;;;;5011777;28;20242;-67
2023/05/25 01:10:48;;;;;;;2.70;1.77;;;19.20;65.10;;;;;;5011896;28;20176;-68
2023/05/25 01:13:18;;;;;;;3.15;1.65;;;19.20;65.00;;;;;;4995921;28;20197;-67
2023/05/25 01:15:46;;;;;;;1.48;1.38;;;19.20;65.00;;;;;;5011790;28;20184;-68
2023/05/25 01:18:16;;;;;;;3.10;2.08;;;19.20;65.00;;;;;;4995492;28;20218;-68
2023/05/25 01:21:11;;;;;;;2.47;1.70;;;19.20;65.00;;;;;;4995543;28;20196;-68
2023/05/25 01:23:47;;;;;;;3.95;2.17;;;19.20;65.10;;;;;;4992058;28;20173;-67
2023/05/25 01:26:17;;;;;;;2.45;2.08;;;19.20;65.00;;;;;;5001678;28;20208;-68
2023/05/25 01:28:51;;;;;;;2.85;2.10;;;19.20;65.00;;;;;;5008553;28;20194;-68
2023/05/25 01:31:21;;;;;;;3.22;1.80;;;19.20;65.00;;;;;;4995254;28;20184;-68
2023/05/25 01:33:50;;;;;;;3.15;1.65;;;19.20;65.00;;;;;;5011461;28;20561;-68
2023/05/25 01:36:18;;;;;;;3.03;1.83;;;19.20;64.90;;;;;;4995107;28;20258;-68
2023/05/25 01:38:44;;;;;;;2.08;1.83;;;19.20;65.00;;;;;;4992486;28;20176;-67
2023/05/25 01:41:10;;;;;;;2.50;1.95;;;19.20;65.00;;;;;;4991829;28;20234;-67
2023/05/25 01:43:36;;;;;;;2.33;1.60;;;19.20;64.90;;;;;;4991322;28;20597;-68
2023/05/25 01:46:22;;;;;;;3.03;2.10;;;19.20;65.00;;;;;;4994872;28;20208;-68
2023/05/25 01:49:01;;;;;;;2.20;2.00;;;19.10;64.90;;;;;;5003064;28;20663;-68
2023/05/25 01:51:48;;;;;;;2.53;1.88;;;19.20;65.00;;;;;;4992053;28;20212;-68
2023/05/25 01:54:18;;;;;;;2.25;1.95;;;19.20;65.00;;;;;;5004730;28;20180;-67
2023/05/25 01:56:50;;;;;;;2.20;1.67;;;19.20;65.00;;;;;;5027423;28;20235;-68
2023/05/25 01:59:20;;;;;;;2.03;1.83;;;19.20;65.00;;;;;;4994927;28;20176;-68
2023/05/25 02:01:50;;;;;;;2.83;2.40;;;19.20;65.00;;;;;;5011076;28;20204;-68
2023/05/25 02:04:17;;;;;;;2.63;2.00;;;19.20;65.00;;;;;;5012817;28;20171;-68
2023/05/25 02:06:47;;;;;;;3.15;2.13;;;19.20;64.90;;;;;;4998847;28;20691;-67
2023/05/25 02:09:13;;;;;;;3.83;2.10;;;19.20;65.00;;;;;;4995422;28;20184;-67
2023/05/25 02:11:38;;;;;;;3.13;2.03;;;19.20;65.00;;;;;;4995097;28;20631;-67
2023/05/25 02:14:05;;;;;;;2.50;1.80;;;19.20;64.90;;;;;;5031872;28;20183;-67
2023/05/25 02:16:30;;;;;;;3.25;2.03;;;19.20;65.00;;;;;;4998973;28;20200;-67
2023/05/25 02:18:59;;;;;;;2.17;1.83;;;19.10;64.80;;;;;;5014666;28;20664;-67
2023/05/25 02:21:25;;;;;;;2.97;2.38;;;19.20;65.00;;;;;;5015015;28;20694;-67
2023/05/25 02:23:52;;;;;;;2.40;2.15;;;19.10;64.90;;;;;;5014894;28;20595;-67
2023/05/25 02:26:19;;;;;;;2.78;2.35;;;19.20;65.00;;;;;;5006749;28;20361;-67
2023/05/25 02:28:45;;;;;;;2.75;2.15;;;19.10;64.90;;;;;;5014668;28;20283;-67
2023/05/25 02:31:10;;;;;;;3.35;2.20;;;19.20;64.90;;;;;;5019681;28;20316;-68
2023/05/25 02:33:36;;;;;;;3.30;2.08;;;19.10;64.90;;;;;;5018860;28;20183;-67
2023/05/25 02:36:04;;;;;;;2.83;2.20;;;19.10;64.90;;;;;;5022835;28;20609;-67
2023/05/25 02:38:30;;;;;;;3.70;2.30;;;19.20;65.00;;;;;;5014600;28;20207;-68
2023/05/25 02:40:55;;;;;;;2.85;2.20;;;19.10;65.00;;;;;;5022820;28;20180;-68
2023/05/25 02:43:22;;;;;;;3.25;2.17;;;19.10;64.80;;;;;;5035326;28;20188;-68
2023/05/25 02:45:48;;;;;;;3.10;2.20;;;19.10;64.80;;;;;;5016704;28;20191;-67
2023/05/25 02:48:14;;;;;;;2.42;2.22;;;19.10;64.90;;;;;;5030810;28;20190;-67
2023/05/25 02:50:40;;;;;;;3.45;2.10;;;19.10;64.80;;;;;;5014447;28;20282;-68
2023/05/25 02:53:10;;;;;;;2.85;2.13;;;19.10;64.90;;;;;;5014348;28;20215;-68
2023/05/25 02:55:39;;;;;;;2.85;1.92;;;19.10;64.80;;;;;;4998162;28;20176;-68
2023/05/25 02:58:07;;;;;;;3.30;2.10;;;19.10;64.80;;;;;;5005383;28;20187;-68
2023/05/25 03:00:49;;;;;;;2.88;1.95;;;19.10;65.00;;;;;;5028707;28;20203;-68
2023/05/25 03:03:15;;;;;;;2.40;2.20;;;19.10;65.00;;;;;;5014578;28;20226;-68
2023/05/25 03:05:41;;;;;;;2.95;2.33;;;19.10;64.90;;;;;;5014162;28;20188;-68
2023/05/25 03:08:07;;;;;;;3.03;1.98;;;19.10;64.90;;;;;;5013917;28;20191;-67
2023/05/25 03:10:34;;;;;;;2.53;2.20;;;19.10;64.90;;;;;;4998152;28;20219;-67
2023/05/25 03:13:00;;;;;;;3.85;2.60;;;19.10;64.90;;;;;;4996120;28;20212;-67
2023/05/25 03:15:26;;;;;;;2.40;2.20;;;19.10;64.90;;;;;;5029990;28;20271;-67
2023/05/25 03:17:52;;;;;;;3.13;2.40;;;19.10;64.90;;;;;;4997346;28;20208;-66
2023/05/25 03:20:20;;;;;;;2.45;2.25;;;19.10;65.00;;;;;;5034682;28;20177;-67
2023/05/25 03:22:46;;;;;;;3.58;2.55;;;19.10;64.90;;;;;;5010899;28;20185;-67
2023/05/25 03:25:12;;;;;;;3.00;2.17;;;19.10;65.00;;;;;;4994663;28;20246;-68
2023/05/25 03:27:39;;;;;;;3.47;2.35;;;19.10;64.90;;;;;;4997392;28;20200;-67
2023/05/25 03:30:06;;;;;;;3.20;2.50;;;19.10;64.90;;;;;;4996832;28;20188;-67
2023/05/25 03:32:33;;;;;;;3.50;2.42;;;19.10;64.90;;;;;;4997747;28;20204;-67
2023/05/25 03:34:59;;;;;;;2.90;2.30;;;19.10;65.00;;;;;;4997308;28;20188;-67
2023/05/25 03:37:25;;;;;;;2.45;2.25;;;19.10;64.90;;;;;;5008389;28;20205;-68
2023/05/25 03:39:51;;;;;;;3.17;2.38;;;19.10;65.00;;;;;;5027280;28;20303;-67
2023/05/25 03:42:16;;;;;;;2.85;2.20;;;19.10;65.00;;;;;;5013719;28;20258;-67
2023/05/25 03:44:42;;;;;;;3.67;2.45;;;19.10;65.00;;;;;;5013695;28;20207;-67
2023/05/25 03:47:09;;;;;;;2.15;1.95;;;19.10;64.90;;;;;;5013080;28;20203;-67
2023/05/25 03:49:34;;;;;;;2.33;2.15;;;19.10;64.90;;;;;;4993741;28;20185;-67
2023/05/25 03:52:00;;;;;;;3.03;2.40;;;19.10;65.00;;;;;;5011725;28;20216;-67
2023/05/25 03:54:26;;;;;;;2.50;2.30;;;19.10;65.00;;;;;;5013400;28;20191;-67
2023/05/25 03:56:52;;;;;;;4.10;2.33;;;19.10;65.00;;;;;;5013140;28;20216;-68
2023/05/25 03:59:18;;;;;;;2.90;2.53;;;19.10;65.00;;;;;;5013203;28;20180;-67
2023/05/25 04:01:46;;;;;;;2.75;2.50;;;19.10;65.00;;;;;;4996968;28;20614;-67
2023/05/25 04:04:11;;;;;;;2.80;2.40;;;19.10;65.00;;;;;;4997284;28;20195;-67
2023/05/25 04:06:37;;;;;;;2.70;2.40;;;19.10;65.00;;;;;;4997107;28;20705;-67
2023/05/25 04:09:05;;;;;;;3.00;2.63;;;19.10;65.00;;;;;;5013078;28;20644;-67
2023/05/25 04:11:32;;;;;;;2.80;2.28;;;19.10;65.00;;;;;;5013285;28;20227;-67
2023/05/25 04:13:58;;;;;;;2.50;2.25;;;19.10;65.00;;;;;;4996507;28;20188;-68
2023/05/25 04:16:28;;;;;;;3.22;2.65;;;19.10;65.00;;;;;;5010578;28;20247;-67
2023/05/25 04:18:55;;;;;;;2.72;2.50;;;19.10;65.00;;;;;;5034686;28;20183;-68
2023/05/25 04:21:22;;;;;;;3.88;2.72;;;19.10;65.00;;;;;;5013222;28;20184;-68
2023/05/25 04:23:48;;;;;;;3.05;2.45;;;19.10;65.00;;;;;;5005443;28;20184;-68
2023/05/25 04:26:15;;;;;;;3.22;2.60;;;19.10;65.00;;;;;;5004599;28;20206;-68
2023/05/25 04:28:41;;;;;;;3.13;2.70;;;19.10;65.00;;;;;;4991943;28;20177;-68
2023/05/25 04:31:27;;;;;;;3.42;2.85;;;19.10;65.00;;;;;;5018728;28;20184;-68
2023/05/25 04:34:13;;;;;;;2.60;2.40;;;19.10;65.00;;;;;;5035283;28;20223;-68
2023/05/25 04:36:43;;;;;;;2.90;2.60;;;19.10;65.00;;;;;;4996815;28;20207;-68
2023/05/25 04:39:11;;;;;;;2.70;2.50;;;19.10;65.10;;;;;;5012039;28;20192;-67
2023/05/25 04:41:42;;;;;;;2.65;2.40;;;19.10;65.10;;;;;;4993280;28;20184;-68
2023/05/25 04:44:10;;;;;;;3.03;2.55;;;19.10;65.10;;;;;;5003694;28;20219;-67
2023/05/25 04:46:39;;;;;;;2.60;2.40;;;19.10;65.10;;;;;;4992963;28;20240;-66
2023/05/25 04:49:12;;;;;;;3.22;2.85;;;19.10;65.10;;;;;;4995997;28;20627;-68
2023/05/25 04:51:37;;;;;;;2.97;2.63;;;19.10;65.00;;;;;;4993124;28;20300;-68
2023/05/25 04:54:04;;;;;;;3.00;2.50;;;19.10;65.00;;;;;;4994392;28;20290;-67
2023/05/25 04:56:31;;;;;;;2.65;2.45;;;19.10;65.10;;;;;;5012218;28;20207;-68
2023/05/25 04:58:57;;;;;;;3.28;2.60;;;19.10;65.10;;;;;;4995575;28;20267;-68
2023/05/25 05:01:25;;;;;;;3.85;2.95;;;19.10;65.10;;;;;;4995908;28;20207;-68
2023/05/25 05:03:51;;;;;;;3.15;2.70;;;19.10;65.10;;;;;;5012127;28;20187;-68
2023/05/25 05:06:17;;;;;;;2.95;2.65;;;19.10;65.00;;;;;;5025206;28;20213;-68
2023/05/25 05:08:43;;;;;;;3.05;2.75;;;19.10;65.00;;;;;;5000430;28;20184;-68
2023/05/25 05:11:09;;;;;;;4.75;2.83;;;19.10;65.10;;;;;;5008655;28;20191;-68
2023/05/25 05:13:35;;;;;;;2.42;2.22;;;19.10;65.10;;;;;;5006216;28;20210;-68
2023/05/25 05:16:01;;;;;;;2.92;2.70;;;19.10;65.00;;;;;;5028008;28;20204;-68
2023/05/25 05:18:27;;;;;;;2.70;2.50;;;19.10;65.10;;;;;;5003998;28;20184;-68
2023/05/25 05:20:54;;;;;;;2.78;2.58;;;19.10;65.00;;;;;;5012079;28;20200;-67
2023/05/25 05:23:20;;;;;;;3.47;2.70;;;19.10;65.10;;;;;;5011996;28;20503;-68
2023/05/25 05:25:46;;;;;;;3.10;2.80;;;19.10;65.10;;;;;;5011690;28;20196;-69
2023/05/25 05:28:13;;;;;;;3.10;2.80;;;19.10;65.00;;;;;;5011458;28;20238;-69
2023/05/25 05:30:40;;;;;;;4.20;2.58;;;19.10;65.10;;;;;;5008264;28;20191;-68
2023/05/25 05:33:06;;;;;;;3.35;2.67;;;19.10;65.00;;;;;;5008482;28;20295;-68
2023/05/25 05:35:37;;;;;;;3.30;2.90;;;19.10;65.00;;;;;;5011635;28;20213;-68
2023/05/25 05:38:08;;;;;;;3.00;2.40;;;19.10;65.10;;;;;;5011319;28;20191;-68
2023/05/25 05:40:34;;;;;;;2.50;2.30;;;19.10;65.10;;;;;;5011169;28;20206;-69
2023/05/25 05:43:00;;;;;;;3.20;2.90;;;19.10;65.10;;;;;;5011453;28;20385;-69
2023/05/25 05:45:26;;;;;;;3.10;2.80;;;19.10;65.20;;;;;;4995095;28;20191;-68
2023/05/25 05:47:52;;;;;;;2.80;2.53;;;19.10;65.20;;;;;;5011573;28;20269;-68
2023/05/25 05:50:17;;;;;;;3.05;2.75;;;19.20;65.30;;;;;;5011448;28;20563;-69
2023/05/25 05:52:44;;;;;;;2.85;2.63;;;19.10;65.20;;;;;;5011712;28;20204;-68
2023/05/25 05:55:11;;;;;;;3.85;3.03;;;19.10;65.30;;;;;;5009276;28;20271;-68
2023/05/25 05:57:38;;;;;;;3.60;3.03;;;19.20;65.30;;;;;;5005626;28;20228;-68
2023/05/25 06:00:06;;;;;;;3.10;2.80;;;19.20;65.40;;;;;;5019473;28;20189;-69
2023/05/25 06:02:41;;;;;;;2.92;2.63;;;19.20;65.30;;;;;;5011331;28;20272;-69
2023/05/25 06:05:08;;;;;;;2.95;2.70;;;19.20;65.40;;;;;;5019692;28;20326;-69
2023/05/25 06:07:37;;;;;;;3.95;2.97;;;19.20;65.40;;;;;;5011021;28;20691;-69
2023/05/25 06:10:04;;;;;;;3.50;2.92;;;19.20;65.40;;;;;;4992787;28;20196;-68
2023/05/25 06:12:31;;;;;;;3.58;3.17;;;19.20;65.40;;;;;;5011243;28;20218;-69
2023/05/25 06:14:57;;;;;;;4.10;2.88;;;19.10;65.30;;;;;;4994595;28;20180;-69
2023/05/25 06:17:23;;;;;;;3.75;2.67;;;19.20;65.60;;;;;;5011002;28;20200;-69
2023/05/25 06:19:52;;;;;;;2.90;2.60;;;19.20;65.50;;;;;;5011186;28;20264;-69
2023/05/25 06:22:18;;;;;;;3.63;3.00;;;19.20;65.50;;;;;;4994387;28;20192;-69
2023/05/25 06:24:44;;;;;;;3.40;3.10;;;19.20;65.60;;;;;;5011332;28;20188;-69
2023/05/25 06:27:12;;;;;;;2.88;2.67;;;19.20;65.60;;;;;;5010734;28;20228;-69
2023/05/25 06:29:38;;;;;;;3.10;2.80;;;19.20;65.50;;;;;;4994651;28;20211;-69
2023/05/25 06:32:05;;;;;;;3.35;3.05;;;19.20;65.60;;;;;;4992241;28;20212;-68
2023/05/25 06:34:31;;;;;;;4.68;3.25;;;19.20;65.60;;;;;;5010986;28;20606;-69
2023/05/25 06:36:57;;;;;;;3.13;2.83;;;19.20;65.60;;;;;;4994491;28;20687;-69
2023/05/25 06:39:23;;;;;;;4.85;3.00;;;19.20;65.60;;;;;;4994434;28;20276;-69
2023/05/25 06:41:50;;;;;;;3.28;2.83;;;19.20;65.70;;;;;;4994920;28;20267;-69
2023/05/25 06:44:25;;;;;;;3.85;3.50;;;19.20;65.70;;;;;;4995278;28;20179;-69
2023/05/25 06:46:51;;;;;;;4.90;3.00;;;19.20;65.60;;;;;;5010701;28;20278;-69
2023/05/25 06:49:17;;;;;;;3.92;2.58;;;19.20;65.70;;;;;;4994582;28;20180;-69
2023/05/25 06:51:43;;;;;;;3.38;3.08;;;19.20;65.70;;;;;;5021219;28;20676;-68
2023/05/25 06:54:09;;;;;;;3.95;3.20;;;19.20;65.70;;;;;;4998215;28;20180;-69
2023/05/25 06:56:35;;;;;;;4.00;2.97;;;19.20;65.70;;;;;;5025877;28;20216;-69
2023/05/25 06:59:00;;;;;;;3.42;3.13;;;19.20;65.70;;;;;;5002948;28;20180;-69
2023/05/25 07:01:26;;;;;;;3.88;3.13;;;19.20;65.60;;;;;;5026763;28;20201;-69
2023/05/25 07:03:52;;;;;;;3.75;3.20;;;19.20;65.70;;;;;;5009972;28;20207;-69
2023/05/25 07:06:19;;;;;;;4.57;3.72;;;19.20;65.70;;;;;;4997875;28;20710;-69
2023/05/25 07:08:45;;;;;;;3.20;2.80;;;19.20;65.70;;;;;;4997744;28;20183;-69
2023/05/25 07:11:12;;;;;;;3.80;3.35;;;19.20;65.70;;;;;;5022485;28;20184;-69
2023/05/25 07:13:39;;;;;;;4.40;3.20;;;19.20;65.80;;;;;;5014340;28;20231;-69
2023/05/25 07:16:05;;;;;;;4.95;3.33;;;19.20;65.80;;;;;;5030234;28;20203;-69
2023/05/25 07:18:31;;;;;;;4.15;3.17;;;19.20;65.80;;;;;;4997472;28;20203;-69
2023/05/25 07:20:57;;;;;;;4.25;3.35;;;19.30;66.00;;;;;;4997681;28;20191;-69
2023/05/25 07:23:22;;;;;;;4.35;3.45;;;19.20;65.80;;;;;;5013990;28;20195;-69
2023/05/25 07:25:48;;;;;;;4.82;3.08;;;19.20;65.80;;;;;;5030421;28;20184;-68
2023/05/25 07:28:14;;;;;;;3.28;2.97;;;19.20;65.90;;;;;;5020202;28;20576;-68
2023/05/25 07:30:40;;;;;;;3.75;3.40;;;19.20;65.80;;;;;;5007877;28;20188;-68
2023/05/25 07:33:06;;;;;;;3.42;3.13;;;19.20;65.90;;;;;;5013772;28;20207;-68
2023/05/25 07:35:34;;;;;;;4.30;3.90;;;19.20;65.90;;;;;;5013950;28;20191;-69
2023/05/25 07:38:05;;;;;;;5.07;4.22;;;19.20;65.90;;;;;;5005502;28;20207;-68
2023/05/25 07:40:31;;;;;;;5.28;3.53;;;19.30;66.10;;;;;;4994521;28;20204;-68
2023/05/25 07:42:57;;;;;;;3.75;3.40;;;19.20;66.00;;;;;;5001822;28;20207;-67
2023/05/25 07:45:23;;;;;;;3.53;3.22;;;19.20;66.70;;;;;;5030130;28;20640;-69
2023/05/25 07:47:49;;;;;;;3.55;3.25;;;19.20;65.90;;;;;;5013663;28;20247;-68
2023/05/25 07:50:14;;;;;;;3.85;3.45;;;19.30;66.00;;;;;;4997288;28;20192;-69
2023/05/25 07:52:41;;;;;;;3.83;3.50;;;19.30;66.00;;;;;;5013484;28;20215;-68
2023/05/25 07:55:07;;;;;;;3.63;3.33;;;19.30;66.00;;;;;;5013866;28;20601;-68
2023/05/25 07:57:33;;;;;;;5.13;3.55;;;19.30;66.00;;;;;;4996867;28;20200;-69
2023/05/25 07:59:59;;;;;;;3.55;3.17;;;19.30;66.00;;;;;;5013878;28;20180;-69
2023/05/25 08:02:25;;;;;;;3.65;3.30;;;19.30;66.00;;;;;;4996666;28;20207;-69
2023/05/25 08:04:51;;;;;;;3.88;3.22;;;19.30;66.00;;;;;;5021454;28;20271;-69
2023/05/25 08:07:20;;;;;;;4.15;3.15;;;19.30;65.90;;;;;;4996601;28;20216;-68
2023/05/25 08:09:46;;;;;;;3.90;3.10;;;19.30;66.70;;;;;;4993697;28;20215;-68
2023/05/25 08:12:12;;;;;;;3.83;3.28;;;19.30;65.90;;;;;;5011145;28;20227;-69
2023/05/25 08:14:38;;;;;;;3.50;3.20;;;19.30;66.00;;;;;;5005411;28;20184;-68
2023/05/25 08:17:04;;;;;;;3.78;3.40;;;19.30;65.90;;;;;;5012624;28;20216;-69
2023/05/25 08:19:31;;;;;;;4.18;3.55;;;19.30;65.90;;;;;;5021625;28;20183;-68
2023/05/25 08:21:57;;;;;;;3.78;3.47;;;19.30;65.90;;;;;;5013204;28;20568;-68
2023/05/25 08:24:23;;;;;;;4.18;3.30;;;19.30;65.90;;;;;;4996642;28;20851;-68
2023/05/25 08:26:49;;;;;;;3.88;3.53;;;19.30;65.90;;;;;;4993411;28;20209;-69
2023/05/25 08:29:15;;;;;;;3.88;3.33;;;19.40;66.00;;;;;;4994927;28;20180;-69
2023/05/25 08:31:42;;;;;;;3.90;3.60;;;19.40;66.80;;;;;;5021152;28;20387;-69
2023/05/25 08:34:08;;;;;;;4.45;3.45;;;19.40;66.00;;;;;;5021069;28;20719;-69
2023/05/25 08:36:34;;;;;;;4.03;3.47;;;19.30;65.90;;;;;;4996421;28;20210;-67
2023/05/25 08:39:01;;;;;;;4.00;3.55;;;19.40;66.00;;;;;;4996388;28;20544;-69
2023/05/25 08:41:28;;;;;;;3.42;3.10;;;19.30;65.90;;;;;;4996829;28;20211;-69
2023/05/25 08:43:54;;;;;;;4.20;3.80;;;19.40;66.00;;;;;;5012502;28;20619;-68
2023/05/25 08:46:30;;;;;;;4.20;3.80;;;19.40;66.00;;;;;;5012398;28;20207;-68
2023/05/25 08:49:13;;;;;;;3.60;3.30;;;19.40;66.00;;;;;;4993146;28;20181;-69
2023/05/25 08:51:50;;;;;;;4.20;3.70;;;19.40;66.00;;;;;;5007828;28;20276;-69
2023/05/25 08:54:28;;;;;;;3.78;3.38;;;19.40;66.00;;;;;;5019389;28;20327;-69
2023/05/25 08:57:22;;;;;;;3.83;3.50;;;19.40;66.00;;;;;;4996164;28;20215;-68
2023/05/25 09:00:02;;;;;;;4.80;3.35;;;19.40;65.90;;;;;;5012495;28;20200;-68
2023/05/25 09:02:41;;;;;;;4.22;3.83;;;19.40;65.90;;;;;;5011948;28;20802;-68
2023/05/25 09:05:08;;;;;;;4.10;3.80;;;19.40;66.00;;;;;;5004087;28;20184;-69
2023/05/25 09:07:34;;;;;;;4.68;3.60;;;19.40;66.00;;;;;;4995662;28;20246;-68
2023/05/25 09:10:01;;;;;;;4.15;3.78;;;19.40;65.90;;;;;;4995767;28;20195;-68
2023/05/25 09:12:31;;;;;;;4.18;3.35;;;19.40;65.90;;;;;;4995398;28;20236;-69
2023/05/25 09:14:58;;;;;;;3.65;3.35;;;19.40;66.00;;;;;;5011490;28;20203;-68
2023/05/25 09:17:24;;;;;;;3.83;3.28;;;19.40;65.80;;;;;;4994492;28;20209;-69
2023/05/25 09:19:50;;;;;;;3.63;3.30;;;19.50;66.00;;;;;;4992300;28;20204;-68
2023/05/25 09:22:16;;;;;;;3.75;3.10;;;19.50;65.90;;;;;;4993448;28;20219;-68
2023/05/25 09:24:42;;;;;;;4.28;3.88;;;19.50;66.00;;;;;;4995842;28;20640;-69
2023/05/25 09:27:17;;;;;;;4.18;3.65;;;19.50;66.00;;;;;;4992148;28;20240;-68
2023/05/25 09:29:43;;;;;;;3.55;3.25;;;19.50;66.10;;;;;;4992163;28;20639;-68
2023/05/25 09:32:09;;;;;;;3.22;2.90;;;19.50;66.10;;;;;;5008915;28;20212;-68
2023/05/25 09:34:35;;;;;;;3.72;3.42;;;19.50;66.10;;;;;;5024450;28;20235;-68
2023/05/25 09:37:15;;;;;;;5.20;3.70;;;19.50;66.10;;;;;;5007173;28;20207;-68
2023/05/25 09:39:44;;;;;;;3.88;3.47;;;19.50;66.20;;;;;;4992057;28;20652;-68
2023/05/25 09:42:11;;;;;;;4.20;3.80;;;19.50;66.30;;;;;;5008583;28;20188;-69
2023/05/25 09:44:38;;;;;;;4.63;4.03;;;19.50;66.20;;;;;;5011838;28;20188;-68
2023/05/25 09:47:05;;;;;;;4.05;3.65;;;19.50;66.10;;;;;;4992765;28;20298;-68
2023/05/25 09:49:31;;;;;;;4.15;3.75;;;19.50;66.20;;;;;;5021957;28;20184;-68
2023/05/25 09:51:57;;;;;;;3.85;3.45;;;19.50;66.20;;;;;;5011268;28;20208;-69
2023/05/25 09:54:24;;;;;;;5.25;3.95;;;19.50;66.20;;;;;;4994984;28;20239;-68
2023/05/25 09:56:50;;;;;;;3.92;3.55;;;19.50;66.20;;;;;;5019403;28;20219;-69
2023/05/25 09:59:16;;;;;;;4.10;3.80;;;19.50;66.30;;;;;;5019883;28;20181;-68
2023/05/25 10:01:43;;;;;;;3.90;3.53;;;19.50;66.40;;;;;;5006469;28;20215;-68
2023/05/25 10:04:09;;;;;;;3.92;3.63;;;19.50;66.40;;;;;;5003112;28;20213;-70
2023/05/25 10:06:38;;;;;;;4.63;4.20;;;19.50;66.40;;;;;;4994878;28;20200;-66
2023/05/25 10:09:07;;;;;;;4.10;3.45;;;19.50;66.40;;;;;;4994410;28;20226;-68
2023/05/25 10:11:36;;;;;;;4.25;3.85;;;19.50;66.40;;;;;;5019641;28;20588;-68
2023/05/25 10:14:06;;;;;;;4.50;4.10;;;19.50;66.40;;;;;;4995012;28;20199;-68
2023/05/25 10:16:33;;;;;;;4.43;4.00;;;19.50;66.40;;;;;;5010965;28;20217;-68
2023/05/25 10:19:11;;;;;;;4.80;3.50;;;19.60;66.50;;;;;;5011014;28;20187;-68
2023/05/25 10:21:38;;;;;;;4.35;3.95;;;19.50;66.40;;;;;;4991557;28;20181;-68
2023/05/25 10:24:13;;;;;;;23.23;14.13;;;19.60;66.50;;;;;;4999653;28;20185;-68
2023/05/25 10:26:44;;;;;;;131.55;78.47;;;19.60;66.50;;;;;;5013208;28;20207;-68
2023/05/25 10:29:11;;;;;;;154.38;87.45;;;19.60;67.30;;;;;;5001610;28;20260;-69
2023/05/25 10:31:38;;;;;;;34.60;22.77;;;19.60;67.30;;;;;;5001974;28;20173;-69
2023/05/25 10:34:04;;;;;;;68.38;41.28;;;19.60;66.80;;;;;;4999876;28;20181;-68
2023/05/25 10:36:32;;;;;;;110.72;67.80;;;19.60;67.00;;;;;;5011856;28;20280;-68
2023/05/25 10:39:00;;;;;;;103.22;59.42;;;19.60;66.80;;;;;;5014590;28;20184;-66
2023/05/25 10:41:26;;;;;;;104.22;62.22;;;19.60;67.30;;;;;;5014748;28;20185;-68
2023/05/25 10:43:54;;;;;;;144.13;83.95;;;19.60;67.10;;;;;;4994961;28;20192;-67
2023/05/25 10:46:20;;;;;;;128.57;76.40;;;19.60;66.90;;;;;;5012061;28;20211;-68
2023/05/25 10:48:49;;;;;;;112.35;65.47;;;19.60;66.90;;;;;;5014337;28;20191;-68
2023/05/25 10:51:18;;;;;;;116.70;70.20;;;19.60;66.80;;;;;;5022317;28;20317;-67
2023/05/25 10:53:46;;;;;;;112.05;66.07;;;19.60;66.80;;;;;;4990901;28;20215;-68
2023/05/25 10:56:13;;;;;;;97.68;60.40;;;19.60;66.80;;;;;;5022661;28;20219;-67
2023/05/25 10:58:45;;;;;;;106.88;64.53;;;19.60;66.80;;;;;;4981843;28;20172;-68
2023/05/25 11:01:14;;;;;;;103.25;62.22;;;19.60;66.80;;;;;;5007222;28;20214;-66
2023/05/25 11:03:43;;;;;;;87.22;55.78;;;19.60;66.80;;;;;;5014123;28;20190;-68
2023/05/25 11:06:14;;;;;;;95.85;56.30;;;19.60;66.80;;;;;;5022831;28;20215;-68
2023/05/25 11:08:57;;;;;;;92.15;54.95;;;19.60;66.70;;;;;;5030472;28;20196;-67
2023/05/25 11:11:41;;;;;;;98.53;58.88;;;19.60;66.60;;;;;;4995746;28;20199;-68
2023/05/25 11:14:28;;;;;;;99.00;58.22;;;19.60;66.60;;;;;;5023140;28;20193;-68
2023/05/25 11:17:17;;;;;;;92.60;55.33;;;19.60;66.50;;;;;;4997761;28;20216;-68
2023/05/25 11:19:50;;;;;;;87.97;54.40;;;19.60;66.60;;;;;;4994615;28;20221;-68
2023/05/25 11:22:19;;;;;;;83.93;52.45;;;19.60;66.50;;;;;;4994664;28;20188;-68
2023/05/25 11:24:52;;;;;;;83.85;53.35;;;19.60;66.50;;;;;;4997432;28;20207;-67
2023/05/25 11:27:28;;;;;;;85.38;51.47;;;19.70;66.60;;;;;;5005842;28;20564;-67
2023/05/25 11:29:58;;;;;;;88.07;54.15;;;19.60;66.50;;;;;;5014021;28;20192;-68
2023/05/25 11:32:25;;;;;;;78.95;51.03;;;19.70;66.70;;;;;;5013493;28;20232;-69
2023/05/25 11:34:52;;;;;;;81.88;50.10;;;19.60;66.80;;;;;;5013772;28;20184;-67
2023/05/25 11:37:20;;;;;;;82.72;50.08;;;19.60;66.80;;;;;;4993636;28;20208;-67
2023/05/25 11:39:51;;;;;;;77.43;50.35;;;19.60;66.50;;;;;;5022864;28;20223;-67
2023/05/25 11:42:23;;;;;;;78.97;50.05;;;19.70;66.70;;;;;;5030250;28;20184;-67
2023/05/25 11:44:48;;;;;;;68.38;46.28;;;19.60;66.50;;;;;;5025536;28;20196;-68
2023/05/25 11:47:18;;;;;;;75.97;48.78;;;19.70;66.60;;;;;;5018181;28;20311;-68
2023/05/25 11:49:46;;;;;;;68.45;44.05;;;19.70;66.70;;;;;;5005830;28;20196;-67
2023/05/25 11:52:13;;;;;;;66.07;43.92;;;19.70;66.70;;;;;;4996953;28;20207;-68
2023/05/25 11:54:40;;;;;;;73.78;46.47;;;19.70;66.60;;;;;;5021968;28;20184;-68
2023/05/25 11:57:18;;;;;;;64.30;42.22;;;19.70;66.80;;;;;;5013521;28;20204;-67
2023/05/25 11:59:48;;;;;;;63.72;39.30;;;19.70;67.00;;;;;;4997242;28;20201;-68
2023/05/25 12:02:15;;;;;;;57.58;40.05;;;19.70;66.90;;;;;;5029565;28;20256;-68
2023/05/25 12:04:52;;;;;;;65.05;41.15;;;19.70;66.90;;;;;;5009730;28;20688;-68
2023/05/25 12:07:17;;;;;;;64.32;40.42;;;19.70;66.90;;;;;;5026043;28;20261;-67
2023/05/25 12:09:43;;;;;;;64.63;41.53;;;19.70;66.90;;;;;;4997005;28;20183;-68
2023/05/25 12:12:09;;;;;;;64.32;41.08;;;19.70;66.90;;;;;;5029500;28;20219;-67
2023/05/25 12:14:49;;;;;;;68.68;43.47;;;19.70;66.90;;;;;;5010386;28;20648;-68
2023/05/25 12:17:20;;;;;;;65.40;42.95;;;19.70;66.90;;;;;;4992984;28;20239;-68
2023/05/25 12:19:46;;;;;;;61.30;39.53;;;19.70;67.00;;;;;;4986201;28;20188;-68
2023/05/25 12:22:13;;;;;;;57.85;37.10;;;19.70;67.00;;;;;;5009127;28;20230;-68
2023/05/25 12:24:40;;;;;;;61.03;39.13;;;19.70;66.90;;;;;;5018360;28;20189;-68
2023/05/25 12:27:21;;;;;;;58.55;39.60;;;19.70;66.90;;;;;;4983544;28;20298;-68
2023/05/25 12:29:48;;;;;;;57.25;38.60;;;19.70;66.90;;;;;;4996456;28;20199;-67
2023/05/25 12:32:15;;;;;;;59.60;37.70;;;19.70;66.90;;;;;;5029249;28;20667;-68
2023/05/25 12:34:40;;;;;;;55.83;35.80;;;19.70;66.90;;;;;;4985199;28;20189;-68
2023/05/25 12:37:18;;;;;;;55.17;37.33;;;19.70;67.00;;;;;;5017594;28;20208;-68
2023/05/25 12:39:44;;;;;;;53.05;35.45;;;19.70;67.10;;;;;;5021157;28;20187;-68
2023/05/25 12:42:17;;;;;;;53.35;35.97;;;19.70;67.10;;;;;;5009188;28;20187;-67
2023/05/25 12:44:45;;;;;;;54.85;37.05;;;19.70;67.40;;;;;;4988199;28;20239;-68
2023/05/25 12:47:20;;;;;;;57.63;37.15;;;19.70;67.30;;;;;;4996290;28;20266;-69
2023/05/25 12:49:50;;;;;;;57.15;38.55;;;19.70;67.10;;;;;;4999795;28;20195;-68